Share

Albion, OK

12:00 PM CDT on April 23, 2014 (GMT -0500)
Kerr (KRKR) Elev 453 ft | 35.02 °N, 94.62 °W | Change Station

Current weather conditions updated 25 minutes ago

Clear
Clear
76 °F
Feels Like 76 °F
N
7
Wind Variable Wind from SSE
Sunrise 6:38 AM
Sunset 7:58 PM
Moon Waning Crescent

Today is forecast to be Warmer than yesterday. Partly cloudy with a stray thunderstorm tonight.

Pressure 29.95 in
Visibility 10.0 miles
Clouds Clear
Dew Point 53 °F
Humidity 44%
Rainfall 0.00 in
Snow Depth Not available.
UV 9 out of 16
Pollen 9.30 out of 12
Air Quality Not available.
Flu Activity Regional
METAR KRKR 231635Z AUTO 15006KT 10SM CLR 25/12 A2995 RMK AO2 T02460116

More Conditions Fewer Conditions

Pressure 29.95 in
Visibility 10.0 miles
Clouds Clear
Dew Point 53 °F
Humidity 44%
Rainfall 0.00 in
Snow Depth Not available.
UV 9 out of 16
Pollen 9.30 out of 12
Air Quality Not available.
Flu Activity Regional
METAR KRKR 231635Z AUTO 15006KT 10SM CLR 25/12 A2995 RMK AO2 T02460116

More Conditions Fewer Conditions

10-Day Weather Forecast

Almanac

Astronomy

Apr. 23, 2014 Rise Set
Actual Time 6:38 AM CDT 7:58 PM CDT
Civil Twilight 6:12 AM CDT 8:25 PM CDT
Nautical Twilight 5:41 AM CDT 8:56 PM CDT
Astronomical Twilight 5:08 AM CDT 9:29 PM CDT
Moon 2:56 AM CDT 2:22 PM CDT
Length of Visible Light 14h 12m
Length of Day
13h 19m
Tomorrow will be 1m 58s longer.
Waning Crescent, 34% of the Moon is Illuminated
Today
Waning Crescent
Apr 29
New
May 6
First Quarter
May 14
Full
May 21
Last Quarter

Today's Extremes

State Highs State Lows

Community

  • Stunning Sunrise
    Stunning Sunrise
  • spring flowers
    spring flowers
  • Earth Day Spectrum Ove' Blue
    Earth Day Spectrum Ove' Blue
  • BARN B&W
    BARN B&W
  • April Sunset
    April Sunset

WunderPhotos

Upload Photos

1,704,338 photos uploaded!

WunderBlogs® & News

Nearby

Snow Depth

Station Depth Elevation
No new snow has been reported.

Coastal Water Temperatures

Place Temperature
No Stations Reporting

Earthquake Activity

City Distance Mag. Time & Date
Stillwater, Oklahoma 146 miles 2.8 5:30 PM CDT
2014-04-19
Stillwater, Oklahoma 146 miles 2.7 3:40 AM CDT
2014-04-19
Farmers Branch, Texas 161 miles 2.5 2:44 PM CDT
2014-04-17
Minimum magnitude displayed is 2.5.

Nearby Weather Stations

Station Location Temp. Heat Index Dew Point Humidity Wind Precip. Elev Updated Type
RAWS KIAMICHI OK, Talihina, OK 77 °F 78 °F 53 °F 44% SSE  at  7 mph 0.00 in / hr 680 ft 10:59 AM CDT MADIS
HADS JACK FORK RIVER AT SARDIS LAKE D OK, Clayton, OK 73 °F 77 °F 53 °F 51% South  at  12 mph 0.00 in / hr 599 ft 11:00 AM CDT MADIS

Show More Stations Show Fewer Stations

What do you think?

We're not finished. Please let us know what you like, what you don't like, and what you are still missing.